Time;durP1;ratioP1;P1;durP2;ratioP2;P2;SDS_P1;SDS_P2;PMS_P1;PMS_P2;Temp;Humidity;BMP_temperature;BMP_pressure;BME280_temperature;BME280_humidity;BME280_pressure;Samples;Min_cycle;Max_cycle;Signal;HPM_P1;HPM_P2
2023/07/08 00:01:14;;;;;;;10.47;7.30;;;23.50;37.80;;;;;;5072128;28;20721;-53
2023/07/08 00:03:40;;;;;;;11.03;6.80;;;23.50;38.10;;;;;;5072310;28;20407;-54
2023/07/08 00:06:11;;;;;;;12.40;7.30;;;23.40;37.70;;;;;;5072618;28;20407;-56
2023/07/08 00:08:37;;;;;;;6.90;6.20;;;23.40;38.10;;;;;;5072325;28;20427;-54
2023/07/08 00:11:10;;;;;;;12.30;6.57;;;23.40;37.80;;;;;;5072335;28;20402;-53
2023/07/08 00:13:36;;;;;;;9.67;6.43;;;23.40;38.10;;;;;;5072163;28;20814;-54
2023/07/08 00:16:02;;;;;;;14.00;6.60;;;23.30;37.60;;;;;;5072089;28;20545;-56
2023/07/08 00:18:27;;;;;;;6.70;6.00;;;23.30;37.20;;;;;;5072375;28;20191;-53
2023/07/08 00:20:53;;;;;;;6.50;5.90;;;23.20;37.40;;;;;;5072234;28;20655;-53
2023/07/08 00:23:21;;;;;;;8.10;6.00;;;23.30;37.80;;;;;;5072430;28;20173;-55
2023/07/08 00:25:48;;;;;;;7.87;6.93;;;23.20;37.90;;;;;;5071997;28;20176;-55
2023/07/08 00:28:19;;;;;;;9.63;6.70;;;23.20;38.00;;;;;;5072263;28;20499;-54
2023/07/08 00:30:45;;;;;;;7.67;6.40;;;23.20;38.00;;;;;;5072004;28;20421;-56
2023/07/08 00:33:11;;;;;;;7.90;6.30;;;23.20;37.80;;;;;;5071998;28;20485;-56
2023/07/08 00:35:41;;;;;;;8.10;5.90;;;23.20;37.80;;;;;;5071982;28;20545;-53
2023/07/08 00:38:26;;;;;;;11.20;6.73;;;23.20;37.90;;;;;;5071482;28;20403;-56
2023/07/08 00:41:13;;;;;;;8.10;7.17;;;23.20;37.70;;;;;;5071992;28;20399;-56
2023/07/08 00:43:53;;;;;;;8.00;6.80;;;23.10;37.70;;;;;;5071677;28;20856;-56
2023/07/08 00:46:29;;;;;;;7.90;7.10;;;23.20;37.00;;;;;;5071952;28;20411;-56
2023/07/08 00:49:06;;;;;;;7.47;6.60;;;23.10;37.30;;;;;;5072094;28;20427;-54
2023/07/08 00:51:33;;;;;;;9.53;6.50;;;23.10;37.60;;;;;;5071997;28;20853;-56
2023/07/08 00:53:59;;;;;;;8.07;6.67;;;23.10;37.60;;;;;;5071949;28;20493;-56
2023/07/08 00:56:59;;;;;;;7.60;6.90;;;23.10;37.80;;;;;;5071775;28;20492;-53
2023/07/08 00:59:28;;;;;;;7.97;7.23;;;23.10;38.20;;;;;;5071171;28;20442;-56
2023/07/08 01:01:55;;;;;;;10.57;7.53;;;23.00;38.40;;;;;;5071744;28;20399;-56
2023/07/08 01:05:02;;;;;;;10.20;9.20;;;23.00;38.40;;;;;;5071733;28;20403;-54
2023/07/08 01:07:28;;;;;;;13.33;12.03;;;23.00;38.30;;;;;;5070399;28;20774;-56
2023/07/08 01:10:01;;;;;;;17.93;15.73;;;22.90;38.50;;;;;;5071645;28;20516;-56
2023/07/08 01:12:32;;;;;;;18.83;17.07;;;22.80;38.80;;;;;;5071747;28;20411;-54
2023/07/08 01:15:02;;;;;;;17.90;14.80;;;22.80;38.50;;;;;;5071765;28;20406;-56
2023/07/08 01:17:32;;;;;;;14.10;12.70;;;22.70;39.10;;;;;;5071708;28;20415;-56
2023/07/08 01:20:05;;;;;;;16.30;14.80;;;22.70;38.40;;;;;;5071270;28;20418;-54
2023/07/08 01:22:35;;;;;;;12.10;10.90;;;22.70;38.60;;;;;;5071830;28;20479;-56
2023/07/08 01:25:03;;;;;;;8.60;7.70;;;22.60;39.20;;;;;;5071634;28;20486;-53
2023/07/08 01:27:32;;;;;;;7.97;7.17;;;22.50;38.40;;;;;;5071521;28;20426;-56
2023/07/08 01:29:59;;;;;;;10.63;7.70;;;22.50;38.70;;;;;;5071077;28;20945;-56
2023/07/08 01:32:25;;;;;;;10.40;7.70;;;22.40;38.90;;;;;;5071680;28;20733;-54
2023/07/08 01:34:59;;;;;;;9.70;8.77;;;22.40;39.10;;;;;;5071322;28;20409;-56
2023/07/08 01:37:39;;;;;;;11.83;9.80;;;22.40;39.40;;;;;;5071427;28;20411;-53
2023/07/08 01:40:21;;;;;;;15.97;13.87;;;22.40;39.50;;;;;;5071142;28;20497;-54
2023/07/08 01:42:47;;;;;;;15.57;13.50;;;22.40;39.40;;;;;;5071319;28;20463;-57
2023/07/08 01:45:15;;;;;;;14.13;12.20;;;22.30;39.20;;;;;;5071345;28;20790;-54
2023/07/08 01:47:45;;;;;;;12.60;11.30;;;22.30;39.50;;;;;;5071573;28;20434;-54
2023/07/08 01:50:11;;;;;;;13.90;9.73;;;22.20;39.30;;;;;;5071282;28;20461;-54
2023/07/08 01:52:38;;;;;;;11.33;9.60;;;22.10;39.60;;;;;;5074826;28;20435;-53
2023/07/08 01:55:04;;;;;;;12.17;9.10;;;22.00;39.30;;;;;;5074747;28;20407;-56
2023/07/08 01:57:30;;;;;;;18.53;14.50;;;22.00;39.40;;;;;;5074603;28;20948;-57
2023/07/08 01:59:56;;;;;;;20.27;16.93;;;22.00;39.40;;;;;;5074462;28;20422;-53
2023/07/08 02:02:24;;;;;;;18.97;16.23;;;22.00;39.50;;;;;;5074914;28;20172;-54
2023/07/08 02:04:50;;;;;;;20.07;16.90;;;22.00;39.40;;;;;;5074563;28;20180;-57
2023/07/08 02:07:15;;;;;;;19.17;16.37;;;22.00;39.30;;;;;;5074640;28;20404;-56
2023/07/08 02:09:41;;;;;;;18.80;16.87;;;22.00;39.20;;;;;;5074283;28;20437;-54
2023/07/08 02:12:07;;;;;;;16.87;14.60;;;21.90;39.50;;;;;;5074371;28;20176;-58
2023/07/08 02:14:33;;;;;;;14.97;13.40;;;21.80;39.50;;;;;;5074295;28;20481;-55
2023/07/08 02:16:59;;;;;;;16.90;9.70;;;21.80;39.60;;;;;;5074339;28;20450;-54
2023/07/08 02:19:25;;;;;;;10.87;9.87;;;21.70;39.60;;;;;;5074050;28;20193;-54
2023/07/08 02:21:53;;;;;;;8.50;7.70;;;21.60;39.60;;;;;;5074311;28;20161;-54
2023/07/08 02:24:19;;;;;;;12.87;8.23;;;21.60;39.80;;;;;;5074299;28;20227;-55
2023/07/08 02:26:47;;;;;;;10.67;7.20;;;21.70;39.60;;;;;;5074341;28;20740;-54
2023/07/08 02:29:12;;;;;;;8.30;7.50;;;21.60;39.50;;;;;;5073938;28;20233;-57
2023/07/08 02:31:38;;;;;;;8.20;7.40;;;21.60;39.60;;;;;;5074052;28;20446;-54
2023/07/08 02:34:04;;;;;;;11.53;8.40;;;21.50;39.60;;;;;;5074290;28;20184;-54
2023/07/08 02:36:30;;;;;;;10.80;7.03;;;21.50;39.90;;;;;;5074277;28;20200;-56
2023/07/08 02:38:55;;;;;;;6.93;6.23;;;21.40;39.90;;;;;;5073891;28;20204;-53
2023/07/08 02:41:21;;;;;;;6.80;6.20;;;21.40;40.00;;;;;;5073603;28;20484;-56
2023/07/08 02:43:47;;;;;;;8.10;6.50;;;21.40;40.00;;;;;;5074180;28;20169;-56
2023/07/08 02:46:13;;;;;;;9.43;7.77;;;21.30;40.30;;;;;;5073844;28;20168;-55
2023/07/08 02:48:39;;;;;;;7.77;6.03;;;21.30;40.20;;;;;;5073720;28;20211;-56
2023/07/08 02:51:06;;;;;;;7.93;6.80;;;21.20;40.20;;;;;;5073585;28;20413;-57
2023/07/08 02:53:32;;;;;;;8.27;6.22;;;21.20;40.40;;;;;;5074023;28;20430;-55
2023/07/08 02:55:57;;;;;;;9.27;6.87;;;21.20;40.60;;;;;;5073439;28;20288;-57
2023/07/08 02:58:24;;;;;;;8.07;6.43;;;21.10;40.40;;;;;;5073619;28;20426;-55
2023/07/08 03:00:53;;;;;;;6.93;6.23;;;21.10;40.60;;;;;;5073478;28;20403;-54
2023/07/08 03:03:19;;;;;;;9.13;6.80;;;21.10;40.60;;;;;;5073220;28;20410;-57
2023/07/08 03:05:57;;;;;;;8.50;6.03;;;21.10;40.50;;;;;;5073481;28;20771;-57
2023/07/08 03:08:23;;;;;;;12.10;6.97;;;21.10;40.50;;;;;;5073228;28;20227;-53
2023/07/08 03:10:55;;;;;;;8.17;6.60;;;21.00;40.60;;;;;;5073116;28;20446;-56
2023/07/08 03:13:21;;;;;;;10.27;6.83;;;21.00;40.50;;;;;;5073385;28;20195;-54
2023/07/08 03:15:46;;;;;;;10.30;6.90;;;21.00;40.30;;;;;;5073179;28;20434;-54
2023/07/08 03:18:12;;;;;;;7.87;7.00;;;21.00;40.50;;;;;;5073152;28;20215;-57
2023/07/08 03:20:40;;;;;;;7.53;6.40;;;20.90;40.60;;;;;;5073305;28;20782;-56
2023/07/08 03:23:06;;;;;;;8.90;7.78;;;20.90;40.60;;;;;;5073025;28;20169;-55
2023/07/08 03:25:32;;;;;;;8.80;6.70;;;20.90;40.80;;;;;;5073317;28;20183;-57
2023/07/08 03:27:57;;;;;;;9.63;8.00;;;20.90;40.80;;;;;;5072917;28;20199;-56
2023/07/08 03:30:23;;;;;;;10.80;8.33;;;20.90;41.00;;;;;;5072976;28;20211;-55
2023/07/08 03:32:49;;;;;;;9.03;7.27;;;20.90;41.00;;;;;;5072982;28;20513;-56
2023/07/08 03:35:15;;;;;;;10.10;6.43;;;20.90;41.10;;;;;;5072875;28;20447;-53
2023/07/08 03:37:41;;;;;;;11.67;7.10;;;20.90;41.10;;;;;;5072767;28;20188;-58
2023/07/08 03:40:10;;;;;;;8.30;6.10;;;20.90;41.10;;;;;;5072762;28;20208;-56
2023/07/08 03:42:36;;;;;;;12.23;7.40;;;20.90;41.00;;;;;;5072788;28;20486;-55
2023/07/08 03:45:01;;;;;;;8.80;6.80;;;21.00;41.30;;;;;;5072963;28;20311;-60
2023/07/08 03:47:27;;;;;;;7.83;7.00;;;20.90;41.60;;;;;;5072750;28;20196;-56
2023/07/08 03:49:53;;;;;;;10.37;6.87;;;20.90;41.60;;;;;;5072386;28;20188;-54
2023/07/08 03:52:19;;;;;;;8.10;7.30;;;20.90;41.70;;;;;;5072516;28;20169;-57
2023/07/08 03:54:45;;;;;;;7.80;7.00;;;20.90;41.50;;;;;;5072454;28;20175;-57
2023/07/08 03:57:10;;;;;;;7.17;6.47;;;20.90;41.50;;;;;;5072686;28;20231;-54
2023/07/08 03:59:36;;;;;;;7.77;6.93;;;21.00;41.80;;;;;;5072263;28;20783;-58
2023/07/08 04:02:02;;;;;;;8.13;6.90;;;21.10;41.90;;;;;;5072480;28;20168;-54
2023/07/08 04:04:28;;;;;;;7.97;7.25;;;21.10;41.70;;;;;;5072335;28;20165;-55
2023/07/08 04:06:54;;;;;;;9.67;7.47;;;21.20;41.70;;;;;;5072249;28;20238;-57
2023/07/08 04:09:20;;;;;;;9.05;7.05;;;21.20;41.70;;;;;;5071979;28;20438;-55
2023/07/08 04:11:46;;;;;;;9.50;7.37;;;21.20;42.00;;;;;;5072446;28;20176;-54
2023/07/08 04:14:13;;;;;;;8.80;6.70;;;21.30;41.90;;;;;;5071422;28;20427;-57
2023/07/08 04:17:11;;;;;;;8.40;6.57;;;21.30;41.80;;;;;;5072441;28;20560;-56
2023/07/08 04:19:39;;;;;;;10.32;7.20;;;21.40;42.20;;;;;;5071498;28;20192;-55
2023/07/08 04:22:05;;;;;;;10.50;7.78;;;21.50;42.40;;;;;;5072108;28;20572;-56
2023/07/08 04:24:31;;;;;;;8.60;7.10;;;21.50;42.30;;;;;;5072339;28;20230;-57
2023/07/08 04:26:58;;;;;;;7.93;7.03;;;21.70;42.30;;;;;;5072124;28;20176;-55
2023/07/08 04:29:24;;;;;;;8.57;6.68;;;21.70;42.40;;;;;;5072060;28;20430;-55
2023/07/08 04:31:49;;;;;;;8.85;7.53;;;21.80;42.20;;;;;;5071939;28;20180;-58
2023/07/08 04:34:16;;;;;;;8.30;6.63;;;21.90;42.20;;;;;;5072063;28;20533;-58
2023/07/08 04:36:43;;;;;;;7.20;6.25;;;22.00;42.00;;;;;;5071896;28;20200;-55
2023/07/08 04:39:09;;;;;;;6.70;5.50;;;22.10;41.80;;;;;;5071716;28;20192;-57
2023/07/08 04:41:40;;;;;;;9.37;6.47;;;22.20;41.60;;;;;;5071879;28;20406;-55
2023/07/08 04:44:13;;;;;;;7.07;6.40;;;22.40;41.70;;;;;;5071949;28;20403;-55
2023/07/08 04:46:46;;;;;;;7.77;6.77;;;22.50;41.50;;;;;;5072211;28;20441;-58
2023/07/08 04:49:13;;;;;;;7.10;6.40;;;22.60;41.40;;;;;;5071985;28;20458;-55
2023/07/08 04:51:40;;;;;;;9.13;6.57;;;22.70;41.40;;;;;;5072181;28;20469;-57
2023/07/08 04:54:06;;;;;;;7.73;5.90;;;22.80;40.70;;;;;;5071788;28;20460;-57
2023/07/08 04:56:43;;;;;;;7.53;5.70;;;22.90;40.60;;;;;;5072032;28;20537;-55
2023/07/08 04:59:11;;;;;;;7.70;6.10;;;23.00;40.40;;;;;;5071645;28;20426;-56
2023/07/08 05:01:38;;;;;;;9.37;6.70;;;23.10;39.60;;;;;;5071677;28;20399;-55
2023/07/08 05:04:07;;;;;;;10.20;6.47;;;23.20;39.30;;;;;;5071909;28;20760;-54
2023/07/08 05:06:34;;;;;;;7.30;5.90;;;23.30;39.10;;;;;;5071718;28;20418;-57
2023/07/08 05:09:01;;;;;;;6.63;5.93;;;23.40;38.80;;;;;;5071547;28;20438;-56
2023/07/08 05:11:27;;;;;;;8.13;5.87;;;23.50;39.40;;;;;;5071719;28;20434;-58
2023/07/08 05:13:53;;;;;;;8.27;5.70;;;23.60;38.80;;;;;;5071661;28;20430;-57
2023/07/08 05:16:18;;;;;;;10.17;5.93;;;23.80;38.50;;;;;;5071788;28;20474;-55
2023/07/08 05:18:45;;;;;;;6.70;5.40;;;23.90;38.40;;;;;;5071558;28;20227;-56
2023/07/08 05:21:11;;;;;;;6.67;4.93;;;24.00;38.00;;;;;;5071313;28;20407;-56
2023/07/08 05:23:37;;;;;;;8.83;5.53;;;24.10;37.90;;;;;;5071479;28;20433;-55
2023/07/08 05:26:05;;;;;;;7.77;5.97;;;24.20;37.60;;;;;;5074557;28;20418;-57
2023/07/08 05:28:31;;;;;;;6.93;5.40;;;24.30;37.30;;;;;;5075226;28;20441;-57
2023/07/08 05:30:57;;;;;;;7.47;4.67;;;24.40;36.90;;;;;;5075025;28;20415;-55
2023/07/08 05:33:24;;;;;;;5.50;5.00;;;24.60;36.40;;;;;;5075280;28;20415;-55
2023/07/08 05:35:51;;;;;;;8.43;5.87;;;24.70;36.50;;;;;;5075055;28;20457;-56
2023/07/08 05:38:17;;;;;;;7.00;5.33;;;24.80;36.50;;;;;;5074916;28;20465;-55
2023/07/08 05:40:43;;;;;;;5.40;4.63;;;25.00;36.50;;;;;;5074831;28;20883;-55
2023/07/08 05:43:09;;;;;;;6.30;4.77;;;25.10;35.60;;;;;;5075078;28;20406;-57
2023/07/08 05:45:35;;;;;;;6.20;5.00;;;25.20;35.60;;;;;;5075034;28;20633;-55
2023/07/08 05:48:02;;;;;;;6.10;4.60;;;25.40;34.60;;;;;;5075019;28;20497;-54
2023/07/08 05:50:28;;;;;;;6.13;4.70;;;25.50;32.30;;;;;;5074683;28;20419;-57
2023/07/08 05:52:53;;;;;;;5.47;4.77;;;25.60;32.80;;;;;;5074755;28;20421;-57
2023/07/08 05:55:19;;;;;;;7.67;4.10;;;25.60;32.60;;;;;;5075038;28;20442;-54
2023/07/08 05:57:45;;;;;;;5.00;4.40;;;25.70;32.60;;;;;;5075059;28;20566;-55
2023/07/08 06:00:11;;;;;;;7.77;4.30;;;25.80;32.40;;;;;;5074651;28;20237;-56
2023/07/08 06:02:37;;;;;;;6.53;5.10;;;26.00;31.90;;;;;;5074692;28;20318;-56
2023/07/08 06:05:03;;;;;;;5.50;4.23;;;26.10;31.50;;;;;;5074917;28;20433;-56
2023/07/08 06:07:29;;;;;;;8.87;4.50;;;26.10;31.20;;;;;;5074861;28;20218;-58
2023/07/08 06:09:56;;;;;;;6.33;4.50;;;26.20;30.90;;;;;;5074294;28;20872;-55
2023/07/08 06:12:22;;;;;;;4.20;3.80;;;26.30;29.20;;;;;;5074426;28;20165;-54
2023/07/08 06:14:48;;;;;;;8.17;4.60;;;26.40;29.80;;;;;;5073290;28;20505;-57
2023/07/08 06:17:14;;;;;;;7.23;5.23;;;26.50;30.50;;;;;;5074637;28;20451;-54
2023/07/08 06:19:40;;;;;;;5.40;4.60;;;26.50;30.30;;;;;;5074390;28;20193;-57
2023/07/08 06:22:05;;;;;;;5.13;4.53;;;26.60;29.50;;;;;;5074234;28;20173;-57
2023/07/08 06:24:31;;;;;;;6.40;4.23;;;26.70;29.80;;;;;;5074258;28;20195;-54
2023/07/08 06:26:57;;;;;;;5.10;4.60;;;26.80;29.40;;;;;;5074550;28;20183;-57
2023/07/08 06:29:26;;;;;;;8.77;4.77;;;27.00;30.70;;;;;;5073944;28;20627;-55
2023/07/08 06:31:52;;;;;;;6.97;4.60;;;27.10;30.50;;;;;;5074218;28;20199;-57
2023/07/08 06:34:22;;;;;;;6.17;4.80;;;27.20;29.80;;;;;;5074123;28;20406;-56
2023/07/08 06:36:48;;;;;;;7.97;4.80;;;27.30;29.00;;;;;;5073104;28;20508;-55
2023/07/08 06:39:13;;;;;;;7.10;5.40;;;27.40;29.30;;;;;;5074007;28;20828;-55
2023/07/08 06:41:39;;;;;;;5.30;4.80;;;27.50;29.30;;;;;;5074024;28;20701;-56
2023/07/08 06:44:05;;;;;;;8.60;4.37;;;27.60;29.20;;;;;;5074097;28;20226;-54
2023/07/08 06:46:31;;;;;;;6.50;4.50;;;27.70;29.40;;;;;;5074004;28;20604;-56
2023/07/08 06:48:57;;;;;;;4.40;4.00;;;27.80;28.20;;;;;;5073499;28;20963;-53
2023/07/08 06:51:23;;;;;;;4.70;4.20;;;27.90;28.00;;;;;;5073413;28;20437;-58
2023/07/08 06:53:48;;;;;;;4.73;4.23;;;28.00;29.20;;;;;;5073776;28;20430;-54
2023/07/08 06:56:14;;;;;;;7.10;5.30;;;28.10;29.00;;;;;;5073839;28;20211;-57
2023/07/08 06:58:40;;;;;;;7.27;4.70;;;28.10;28.20;;;;;;5073665;28;20886;-55
2023/07/08 07:01:06;;;;;;;9.40;4.20;;;28.10;28.30;;;;;;5073376;28;20198;-54
2023/07/08 07:03:31;;;;;;;4.70;4.17;;;28.30;28.10;;;;;;5073561;28;20200;-56
2023/07/08 07:05:57;;;;;;;5.43;4.10;;;28.40;28.60;;;;;;5073383;28;20271;-56
2023/07/08 07:08:23;;;;;;;5.30;4.50;;;28.40;27.70;;;;;;5073646;28;20199;-55
2023/07/08 07:10:49;;;;;;;5.43;4.13;;;28.60;27.60;;;;;;5073289;28;20960;-56
2023/07/08 07:13:15;;;;;;;6.30;4.50;;;28.60;27.30;;;;;;5073438;28;20196;-55
2023/07/08 07:15:40;;;;;;;6.80;4.50;;;28.60;27.10;;;;;;5073230;28;20191;-55
2023/07/08 07:18:06;;;;;;;5.70;4.70;;;28.70;26.60;;;;;;5073518;28;20202;-54
2023/07/08 07:20:33;;;;;;;6.53;4.70;;;28.80;27.10;;;;;;5072833;28;20525;-57
2023/07/08 07:22:59;;;;;;;5.50;4.37;;;28.90;27.60;;;;;;5073439;28;20169;-54
2023/07/08 07:25:25;;;;;;;5.50;4.03;;;28.90;26.90;;;;;;5073307;28;20419;-57
2023/07/08 07:27:50;;;;;;;5.80;5.20;;;29.00;27.30;;;;;;5073177;28;20176;-56
2023/07/08 07:30:16;;;;;;;5.60;4.10;;;29.10;27.50;;;;;;5072796;28;20742;-54
2023/07/08 07:32:43;;;;;;;5.90;4.40;;;29.30;27.90;;;;;;5072977;28;20179;-56
2023/07/08 07:35:14;;;;;;;10.90;4.60;;;29.40;27.70;;;;;;5072819;28;20656;-53
2023/07/08 07:37:41;;;;;;;6.50;4.70;;;29.50;28.20;;;;;;5073184;28;20387;-55
2023/07/08 07:40:12;;;;;;;9.03;5.10;;;29.70;27.60;;;;;;5071747;28;20443;-58
2023/07/08 07:42:42;;;;;;;11.30;4.97;;;29.80;27.10;;;;;;5072741;28;20407;-54
2023/07/08 07:45:09;;;;;;;7.60;4.80;;;29.90;27.10;;;;;;5072752;28;20413;-55
2023/07/08 07:47:36;;;;;;;6.70;5.03;;;30.00;28.00;;;;;;5072537;28;20472;-55
2023/07/08 07:50:03;;;;;;;5.80;4.90;;;30.10;27.50;;;;;;5072566;28;20458;-54
2023/07/08 07:52:29;;;;;;;7.77;4.53;;;30.10;26.90;;;;;;5072477;28;20410;-56
2023/07/08 07:54:55;;;;;;;5.10;4.60;;;30.20;26.90;;;;;;5072456;28;20415;-54
2023/07/08 07:57:21;;;;;;;5.87;5.30;;;30.40;27.60;;;;;;5072351;28;20212;-54
2023/07/08 07:59:48;;;;;;;6.97;4.10;;;30.40;26.60;;;;;;5072157;28;20468;-56
2023/07/08 08:02:15;;;;;;;7.43;5.27;;;30.50;27.20;;;;;;5072316;28;20395;-54
2023/07/08 08:04:40;;;;;;;6.83;4.17;;;30.70;26.70;;;;;;5072598;28;20510;-56
2023/07/08 08:07:06;;;;;;;5.77;5.17;;;30.80;26.90;;;;;;5072557;28;20572;-54
2023/07/08 08:09:32;;;;;;;7.50;4.83;;;30.70;25.80;;;;;;5071927;28;20552;-54
2023/07/08 08:11:58;;;;;;;7.40;5.60;;;30.70;26.80;;;;;;5072416;28;20259;-56
2023/07/08 08:14:23;;;;;;;5.43;4.70;;;30.80;26.80;;;;;;5072380;28;20549;-56
2023/07/08 08:16:50;;;;;;;8.00;4.30;;;30.80;27.20;;;;;;5072041;28;20529;-55
2023/07/08 08:19:17;;;;;;;6.27;5.20;;;31.00;27.90;;;;;;5071884;28;20220;-56
2023/07/08 08:21:42;;;;;;;8.67;4.70;;;31.00;27.80;;;;;;5072196;28;20482;-53
2023/07/08 08:24:08;;;;;;;5.93;4.70;;;31.10;27.80;;;;;;5072223;28;20204;-56
2023/07/08 08:26:34;;;;;;;11.40;4.93;;;31.20;28.00;;;;;;5072052;28;20632;-53
2023/07/08 08:29:00;;;;;;;5.33;4.63;;;31.20;27.30;;;;;;5071994;28;20294;-54
2023/07/08 08:31:26;;;;;;;9.00;5.20;;;31.30;26.80;;;;;;5071780;28;20271;-56
2023/07/08 08:33:52;;;;;;;7.77;4.97;;;31.30;27.80;;;;;;5072244;28;20498;-54
2023/07/08 08:36:18;;;;;;;7.37;4.47;;;31.40;26.90;;;;;;5071860;28;20236;-57
2023/07/08 08:38:44;;;;;;;5.80;4.50;;;31.50;26.80;;;;;;5072037;28;20824;-54
2023/07/08 08:41:15;;;;;;;7.20;5.70;;;31.70;26.70;;;;;;5071696;28;20403;-56
2023/07/08 08:43:43;;;;;;;11.10;5.30;;;31.80;27.00;;;;;;5072000;28;20300;-53
2023/07/08 08:46:16;;;;;;;9.17;5.10;;;32.00;28.30;;;;;;5071914;28;20871;-56
2023/07/08 08:48:53;;;;;;;5.23;4.57;;;32.10;27.70;;;;;;5071816;28;20430;-56
2023/07/08 08:51:19;;;;;;;5.90;4.80;;;32.30;26.30;;;;;;5071966;28;20405;-54
2023/07/08 08:53:46;;;;;;;5.23;4.70;;;32.30;26.20;;;;;;5071808;28;20771;-54
2023/07/08 08:56:22;;;;;;;7.73;4.97;;;32.30;25.00;;;;;;5071556;28;20456;-56
2023/07/08 08:58:51;;;;;;;7.57;5.90;;;32.30;26.50;;;;;;5071736;28;20434;-56
2023/07/08 09:01:17;;;;;;;6.07;5.27;;;32.20;25.10;;;;;;5075102;28;20409;-53
2023/07/08 09:03:48;;;;;;;6.77;5.40;;;32.30;25.90;;;;;;5075793;28;20885;-53
2023/07/08 09:06:24;;;;;;;6.07;4.80;;;32.50;25.90;;;;;;5075789;28;20405;-54
2023/07/08 09:08:51;;;;;;;6.10;4.93;;;32.60;24.10;;;;;;5075455;28;20433;-54
2023/07/08 09:11:42;;;;;;;5.70;4.70;;;32.80;24.80;;;;;;5075490;28;20965;-56
2023/07/08 09:14:28;;;;;;;8.83;5.03;;;32.90;24.70;;;;;;5075531;28;20509;-56
2023/07/08 09:17:27;;;;;;;6.27;5.40;;;33.00;25.40;;;;;;5075710;28;20462;-54
2023/07/08 09:20:18;;;;;;;7.03;4.90;;;33.20;24.20;;;;;;5075178;28;20517;-54
2023/07/08 09:22:51;;;;;;;5.77;4.73;;;33.30;25.90;;;;;;5075378;28;20403;-57
2023/07/08 09:25:42;;;;;;;6.70;4.50;;;33.40;24.60;;;;;;5075321;28;20390;-54
2023/07/08 09:28:09;;;;;;;5.43;4.77;;;33.60;24.90;;;;;;5075234;28;20787;-54
2023/07/08 09:30:35;;;;;;;6.13;4.77;;;33.70;24.80;;;;;;5075025;28;20414;-54
2023/07/08 09:33:06;;;;;;;6.37;5.07;;;33.80;23.30;;;;;;5075154;28;20413;-54
2023/07/08 09:35:46;;;;;;;6.77;3.80;;;34.00;23.00;;;;;;5075046;28;20451;-56
2023/07/08 09:38:17;;;;;;;9.83;4.50;;;34.00;20.80;;;;;;5075304;28;20476;-54
2023/07/08 09:40:53;;;;;;;5.20;4.57;;;34.00;19.70;;;;;;5074834;28;20407;-55
2023/07/08 09:43:27;;;;;;;5.77;4.37;;;33.90;19.90;;;;;;5074954;28;20438;-52
2023/07/08 09:45:58;;;;;;;4.70;4.07;;;33.80;18.80;;;;;;5075048;28;20406;-56
2023/07/08 09:48:29;;;;;;;9.27;4.43;;;33.80;20.00;;;;;;5074833;28;20947;-56
2023/07/08 09:50:57;;;;;;;4.90;4.00;;;33.80;21.10;;;;;;5074948;28;20801;-54
2023/07/08 09:53:23;;;;;;;6.40;3.70;;;34.00;20.60;;;;;;5075085;28;20457;-56
2023/07/08 09:55:50;;;;;;;7.33;4.20;;;34.10;18.50;;;;;;5074815;28;20461;-54
2023/07/08 09:58:44;;;;;;;8.83;4.33;;;34.00;18.80;;;;;;5074731;28;20476;-53
2023/07/08 10:01:13;;;;;;;5.43;4.50;;;33.90;18.50;;;;;;5074378;28;20442;-56
2023/07/08 10:03:40;;;;;;;7.20;5.43;;;33.80;18.90;;;;;;5074648;28;20442;-53
2023/07/08 10:06:35;;;;;;;5.70;4.67;;;33.80;20.20;;;;;;5074805;28;20415;-54
2023/07/08 10:09:04;;;;;;;5.33;4.30;;;34.00;20.10;;;;;;5074300;28;20450;-56
2023/07/08 10:11:51;;;;;;;5.23;4.00;;;34.10;20.50;;;;;;5073127;28;20418;-54
2023/07/08 10:14:39;;;;;;;4.90;4.23;;;34.30;20.50;;;;;;5074188;28;20525;-54
2023/07/08 10:17:05;;;;;;;8.13;5.57;;;34.40;20.00;;;;;;5074669;28;20446;-56
2023/07/08 10:19:31;;;;;;;6.17;5.57;;;34.40;18.80;;;;;;5073902;28;20426;-54
2023/07/08 10:22:07;;;;;;;5.40;3.80;;;34.40;19.40;;;;;;5074389;28;20413;-56
2023/07/08 10:24:36;;;;;;;4.57;4.00;;;34.40;18.30;;;;;;5074306;28;20481;-54
2023/07/08 10:27:31;;;;;;;6.90;3.93;;;34.40;19.10;;;;;;5074364;28;20411;-53
2023/07/08 10:30:06;;;;;;;4.60;3.90;;;34.50;18.30;;;;;;5073904;28;20415;-53
2023/07/08 10:33:08;;;;;;;6.90;4.00;;;34.50;19.60;;;;;;5074139;28;20394;-56
2023/07/08 10:35:37;;;;;;;6.53;5.83;;;34.60;18.20;;;;;;5074026;28;20451;-56
2023/07/08 10:38:08;;;;;;;8.03;4.27;;;34.60;17.30;;;;;;5073982;28;20498;-53
2023/07/08 10:40:39;;;;;;;4.97;4.00;;;34.70;17.90;;;;;;5073920;28;20395;-53
2023/07/08 10:43:11;;;;;;;6.23;4.00;;;34.80;16.70;;;;;;5074217;28;20390;-56
2023/07/08 10:45:58;;;;;;;6.33;4.13;;;34.80;16.60;;;;;;5074110;28;20438;-53
2023/07/08 10:48:47;;;;;;;6.03;4.10;;;34.70;16.50;;;;;;5073983;28;20422;-56
2023/07/08 10:51:39;;;;;;;7.27;4.37;;;34.60;17.40;;;;;;5073825;28;20423;-53
2023/07/08 10:54:17;;;;;;;5.23;4.03;;;34.70;17.80;;;;;;5073735;28;20919;-56
2023/07/08 10:57:40;;;;;;;4.33;3.90;;;34.70;17.30;;;;;;5073665;28;20510;-56
2023/07/08 11:00:46;;;;;;;6.90;4.07;;;34.80;16.40;;;;;;5070930;28;20461;-56
2023/07/08 11:04:06;;;;;;;5.90;4.20;;;34.70;17.00;;;;;;5071139;28;20434;-54
2023/07/08 11:06:52;;;;;;;7.33;4.70;;;34.70;16.70;;;;;;4972349;28;20489;-54
2023/07/08 11:09:50;;;;;;;6.10;3.70;;;34.60;17.40;;;;;;4972094;28;20966;-53
2023/07/08 11:12:38;;;;;;;5.10;4.37;;;34.50;16.80;;;;;;4972172;28;20973;-55
2023/07/08 11:15:23;;;;;;;7.10;4.10;;;34.70;17.30;;;;;;4972322;28;20418;-53
2023/07/08 11:18:07;;;;;;;5.13;3.70;;;34.80;17.50;;;;;;4972151;28;20427;-54
2023/07/08 11:20:42;;;;;;;5.63;4.20;;;34.90;18.40;;;;;;4971996;28;20416;-57
2023/07/08 11:23:30;;;;;;;4.90;4.33;;;35.00;18.80;;;;;;4971761;28;20404;-53
2023/07/08 11:26:34;;;;;;;5.90;5.30;;;35.10;17.50;;;;;;4972157;28;20462;-57
2023/07/08 11:29:02;;;;;;;5.27;4.00;;;35.00;18.30;;;;;;4959347;28;20476;-56
2023/07/08 11:31:32;;;;;;;5.17;4.23;;;35.00;17.00;;;;;;4988613;28;20418;-54
2023/07/08 11:34:00;;;;;;;5.50;4.80;;;34.90;17.40;;;;;;4991413;28;20427;-54
2023/07/08 11:36:28;;;;;;;5.27;4.10;;;34.80;17.80;;;;;;5002919;28;20485;-56
2023/07/08 11:38:56;;;;;;;6.70;3.67;;;34.80;16.40;;;;;;5071319;28;20935;-57
2023/07/08 11:41:25;;;;;;;6.17;4.80;;;34.60;16.40;;;;;;5072589;28;20406;-53
2023/07/08 11:44:02;;;;;;;4.10;3.50;;;34.60;17.30;;;;;;5072622;28;20407;-54
2023/07/08 11:46:31;;;;;;;6.40;4.23;;;34.60;18.20;;;;;;5072661;28;20411;-57
2023/07/08 11:49:02;;;;;;;5.20;4.10;;;34.70;18.20;;;;;;5072553;28;20522;-54
2023/07/08 11:51:41;;;;;;;5.50;4.17;;;34.80;17.60;;;;;;5072426;28;21015;-53
2023/07/08 11:54:30;;;;;;;4.33;3.93;;;35.00;17.50;;;;;;5072913;28;20422;-56
2023/07/08 11:57:06;;;;;;;4.90;3.77;;;35.00;17.20;;;;;;5072427;28;20537;-53
2023/07/08 11:59:40;;;;;;;5.13;4.07;;;35.20;17.30;;;;;;5072122;28;20431;-56
2023/07/08 12:02:18;;;;;;;6.47;5.20;;;35.30;18.10;;;;;;5072408;28;20407;-53
2023/07/08 12:05:00;;;;;;;4.77;4.20;;;35.50;15.80;;;;;;5072418;28;20407;-57
2023/07/08 12:07:37;;;;;;;4.53;4.10;;;35.50;16.70;;;;;;5072422;28;20420;-53
2023/07/08 12:10:18;;;;;;;5.67;4.37;;;35.60;16.00;;;;;;5071963;28;20511;-56
2023/07/08 12:12:46;;;;;;;4.00;3.60;;;35.70;16.90;;;;;;5072387;28;20437;-54
2023/07/08 12:15:17;;;;;;;6.83;4.57;;;35.60;16.00;;;;;;5072292;28;20433;-54
2023/07/08 12:17:44;;;;;;;5.80;4.47;;;35.60;15.90;;;;;;5072514;28;20415;-56
2023/07/08 12:20:27;;;;;;;5.80;4.30;;;35.60;15.80;;;;;;5071833;28;20432;-54
2023/07/08 12:22:52;;;;;;;4.67;4.20;;;35.70;16.80;;;;;;5072356;28;20415;-56
2023/07/08 12:25:22;;;;;;;5.20;4.10;;;35.80;17.70;;;;;;5072197;28;20437;-56
2023/07/08 12:27:48;;;;;;;4.83;4.33;;;35.90;16.70;;;;;;5072077;28;20283;-54
2023/07/08 12:30:15;;;;;;;5.53;4.03;;;36.00;16.80;;;;;;5071807;28;20469;-54
2023/07/08 12:32:42;;;;;;;5.37;3.83;;;36.10;17.90;;;;;;5072031;28;20411;-56
2023/07/08 12:35:29;;;;;;;6.40;3.90;;;36.10;16.40;;;;;;5071166;28;20440;-53
2023/07/08 12:38:02;;;;;;;5.97;4.50;;;36.10;14.50;;;;;;5072301;28;20429;-54
2023/07/08 12:40:29;;;;;;;4.33;3.93;;;36.00;16.00;;;;;;5071807;28;20806;-55
2023/07/08 12:42:56;;;;;;;6.07;4.50;;;35.90;16.10;;;;;;5071920;28;20395;-54
2023/07/08 12:45:25;;;;;;;4.47;4.03;;;36.00;16.80;;;;;;5071881;28;20964;-56
2023/07/08 12:47:51;;;;;;;4.73;3.50;;;36.10;17.20;;;;;;5072217;28;20403;-54
2023/07/08 12:50:17;;;;;;;4.97;4.27;;;36.20;17.70;;;;;;5071739;28;20419;-54
2023/07/08 12:52:45;;;;;;;6.43;4.00;;;36.40;18.00;;;;;;5071994;28;20421;-56
2023/07/08 12:55:12;;;;;;;5.10;3.93;;;36.40;18.00;;;;;;5071961;28;20168;-54
2023/07/08 12:57:42;;;;;;;8.30;4.40;;;36.50;17.10;;;;;;5071816;28;20862;-56
2023/07/08 13:00:18;;;;;;;6.67;4.63;;;36.60;16.40;;;;;;5071453;28;20415;-54
2023/07/08 13:02:47;;;;;;;4.70;4.30;;;36.60;15.40;;;;;;5071777;28;20876;-54